createdAt,value
2023-11-30T00:00:47.018Z,23.30
2023-11-30T00:01:47.060Z,26.40
2023-11-30T00:02:46.965Z,22.90
2023-11-30T00:03:47.096Z,24.10
2023-11-30T00:04:46.955Z,24.00
2023-11-30T00:05:46.977Z,26.60
2023-11-30T00:06:46.924Z,24.90
2023-11-30T00:07:46.917Z,26.20
2023-11-30T00:08:46.950Z,26.20
2023-11-30T00:09:46.911Z,27.70
2023-11-30T00:10:46.890Z,25.00
2023-11-30T00:11:46.896Z,24.30
2023-11-30T00:12:46.868Z,24.30
2023-11-30T00:13:46.861Z,26.20
2023-11-30T00:14:46.948Z,22.70
2023-11-30T00:15:48.055Z,20.60
2023-11-30T00:16:46.855Z,22.70
2023-11-30T00:17:46.932Z,21.30
2023-11-30T00:18:46.851Z,22.00
2023-11-30T00:19:46.811Z,21.30
2023-11-30T00:20:46.840Z,19.80
2023-11-30T00:21:46.778Z,23.80
2023-11-30T00:22:46.760Z,21.80
2023-11-30T00:23:46.803Z,20.60
2023-11-30T00:24:46.750Z,21.20
2023-11-30T00:25:46.737Z,22.00
2023-11-30T00:26:46.741Z,22.60
2023-11-30T00:27:46.724Z,22.30
2023-11-30T00:28:46.704Z,21.40
2023-11-30T00:29:46.720Z,22.20
2023-11-30T00:30:46.677Z,20.00
2023-11-30T00:31:46.715Z,20.50
2023-11-30T00:32:46.709Z,20.70
2023-11-30T00:33:46.653Z,20.60
2023-11-30T00:34:46.642Z,21.40
2023-11-30T00:35:46.659Z,21.00
2023-11-30T00:36:46.635Z,19.80
2023-11-30T00:37:46.620Z,20.50
2023-11-30T00:38:46.632Z,22.10
2023-11-30T00:39:46.605Z,21.90
2023-11-30T00:40:46.564Z,20.60
2023-11-30T00:41:46.638Z,22.00
2023-11-30T00:42:46.691Z,19.60
2023-11-30T00:43:46.538Z,20.30
2023-11-30T00:44:46.826Z,18.90
2023-11-30T00:45:52.737Z,20.40
2023-11-30T00:46:46.545Z,18.40
2023-11-30T00:47:46.548Z,23.40
2023-11-30T00:48:46.566Z,21.50
2023-11-30T00:49:46.472Z,23.40
2023-11-30T00:50:46.475Z,22.40
2023-11-30T00:51:46.451Z,23.70
2023-11-30T00:52:46.469Z,22.70
2023-11-30T00:53:46.445Z,21.00
2023-11-30T00:54:46.456Z,22.00
2023-11-30T00:55:46.423Z,24.10
2023-11-30T00:56:46.401Z,21.30
2023-11-30T00:57:46.403Z,21.80
2023-11-30T00:58:46.425Z,21.30
2023-11-30T00:59:46.391Z,20.60
2023-11-30T01:00:46.376Z,21.50
2023-11-30T01:01:46.386Z,22.60
2023-11-30T01:02:46.347Z,21.90
2023-11-30T01:03:46.394Z,21.50
2023-11-30T01:04:46.348Z,22.90
2023-11-30T01:05:46.311Z,23.10
2023-11-30T01:06:46.318Z,19.80
2023-11-30T01:07:46.281Z,21.30
2023-11-30T01:08:46.299Z,21.50
2023-11-30T01:09:46.281Z,22.80
2023-11-30T01:10:46.351Z,21.60
2023-11-30T01:11:46.229Z,21.10
2023-11-30T01:12:46.241Z,21.40
2023-11-30T01:13:46.254Z,20.60
2023-11-30T01:14:46.219Z,22.00
2023-11-30T01:15:46.246Z,20.20
2023-11-30T01:16:46.230Z,21.50
2023-11-30T01:17:46.232Z,20.30
2023-11-30T01:18:46.212Z,21.60
2023-11-30T01:19:46.184Z,22.10
2023-11-30T01:20:46.170Z,20.80
2023-11-30T01:21:46.154Z,20.20
2023-11-30T01:22:46.139Z,20.90
2023-11-30T01:23:46.118Z,21.80
2023-11-30T01:24:46.121Z,22.20
2023-11-30T01:25:46.119Z,23.50
2023-11-30T01:26:46.104Z,22.90
2023-11-30T01:27:46.068Z,19.70
2023-11-30T01:28:46.073Z,21.50
2023-11-30T01:29:46.044Z,23.60
2023-11-30T01:30:46.093Z,21.00
2023-11-30T01:31:46.069Z,22.20
2023-11-30T01:32:46.055Z,21.90
2023-11-30T01:33:46.078Z,22.60
2023-11-30T01:34:46.035Z,20.40
2023-11-30T01:35:46.018Z,23.30
2023-11-30T01:36:45.989Z,22.20
2023-11-30T01:37:45.969Z,24.20
2023-11-30T01:38:45.979Z,24.40
2023-11-30T01:39:45.939Z,21.30
2023-11-30T01:40:45.935Z,21.50
2023-11-30T01:41:45.956Z,22.20
2023-11-30T01:42:45.976Z,23.80
2023-11-30T01:43:45.927Z,21.90
2023-11-30T01:44:45.893Z,23.10
2023-11-30T01:45:45.905Z,22.50
2023-11-30T01:46:45.899Z,20.00
2023-11-30T01:47:45.887Z,21.60
2023-11-30T01:48:45.934Z,22.70
2023-11-30T01:49:45.843Z,23.30
2023-11-30T01:50:45.830Z,21.40
2023-11-30T01:51:45.849Z,21.80
2023-11-30T01:52:45.816Z,22.70
2023-11-30T01:53:45.830Z,25.00
2023-11-30T01:54:45.824Z,22.30
2023-11-30T01:55:45.796Z,20.90
2023-11-30T01:56:45.763Z,24.50
2023-11-30T01:57:45.762Z,24.90
2023-11-30T01:58:45.786Z,24.70
2023-11-30T01:59:45.731Z,24.50
2023-11-30T02:00:45.730Z,24.80
2023-11-30T02:01:45.752Z,23.80
2023-11-30T02:02:45.698Z,23.90
2023-11-30T02:03:45.791Z,23.60
2023-11-30T02:04:45.709Z,23.70
2023-11-30T02:05:45.705Z,22.80
2023-11-30T02:06:45.663Z,24.70
2023-11-30T02:07:45.668Z,22.30
2023-11-30T02:08:45.654Z,21.70
2023-11-30T02:09:45.631Z,21.70
2023-11-30T02:10:45.646Z,21.90
2023-11-30T02:11:45.629Z,19.80
2023-11-30T02:12:45.596Z,19.80
2023-11-30T02:13:45.636Z,21.90
2023-11-30T02:14:45.615Z,22.90
2023-11-30T02:15:45.558Z,20.00
2023-11-30T02:16:45.561Z,22.10
2023-11-30T02:17:45.574Z,19.20
2023-11-30T02:18:45.607Z,21.70
2023-11-30T02:19:45.520Z,19.70
2023-11-30T02:20:45.533Z,21.30
2023-11-30T02:21:45.517Z,21.10
2023-11-30T02:22:45.498Z,21.00
2023-11-30T02:23:45.475Z,22.30
2023-11-30T02:24:45.466Z,19.10
2023-11-30T02:25:45.486Z,20.10
2023-11-30T02:26:45.435Z,20.30
2023-11-30T02:27:45.433Z,19.10
2023-11-30T02:28:45.464Z,23.30
2023-11-30T02:29:45.435Z,20.00
2023-11-30T02:30:45.397Z,21.40
2023-11-30T02:31:45.559Z,17.10
2023-11-30T02:32:45.470Z,18.10
2023-11-30T02:33:45.397Z,19.80
2023-11-30T02:34:45.383Z,22.90
2023-11-30T02:35:45.365Z,18.90
2023-11-30T02:36:45.333Z,20.70
2023-11-30T02:37:45.364Z,19.30
2023-11-30T02:38:45.330Z,18.40
2023-11-30T02:39:45.317Z,20.20
2023-11-30T02:40:45.291Z,17.70
2023-11-30T02:41:45.331Z,19.60
2023-11-30T02:42:45.312Z,18.80
2023-11-30T02:43:45.286Z,17.70
2023-11-30T02:44:45.256Z,19.10
2023-11-30T02:45:45.306Z,19.20
2023-11-30T02:46:45.269Z,18.10
2023-11-30T02:47:45.278Z,17.30
2023-11-30T02:48:45.279Z,18.60
2023-11-30T02:49:45.201Z,21.30
2023-11-30T02:50:45.221Z,19.30
2023-11-30T02:51:45.193Z,18.20
2023-11-30T02:52:45.181Z,18.10
2023-11-30T02:53:45.156Z,18.20
2023-11-30T02:54:45.159Z,18.30
2023-11-30T02:55:45.170Z,17.70
2023-11-30T02:56:45.162Z,16.20
2023-11-30T02:57:45.122Z,17.30
2023-11-30T02:58:45.118Z,17.20
2023-11-30T02:59:45.100Z,17.30
2023-11-30T03:00:45.085Z,18.10
2023-11-30T03:01:45.127Z,19.00
2023-11-30T03:02:45.114Z,16.50
2023-11-30T03:03:45.125Z,17.30
2023-11-30T03:04:45.046Z,18.40
2023-11-30T03:05:45.050Z,15.70
2023-11-30T03:06:45.033Z,16.00
2023-11-30T03:07:45.012Z,16.60
2023-11-30T03:08:45.018Z,17.60
2023-11-30T03:09:45.024Z,18.00
2023-11-30T03:10:44.984Z,17.60
2023-11-30T03:11:44.978Z,15.00
2023-11-30T03:12:44.973Z,16.70
2023-11-30T03:13:44.951Z,15.50
2023-11-30T03:14:44.967Z,17.40
2023-11-30T03:15:44.951Z,16.80
2023-11-30T03:16:44.976Z,16.60
2023-11-30T03:17:44.941Z,17.30
2023-11-30T03:18:44.948Z,16.10
2023-11-30T03:19:44.881Z,16.80
2023-11-30T03:20:44.887Z,17.10
2023-11-30T03:21:44.871Z,17.50
2023-11-30T03:22:44.851Z,16.50
2023-11-30T03:23:44.850Z,17.90
2023-11-30T03:24:44.862Z,19.30
2023-11-30T03:25:44.814Z,18.70
2023-11-30T03:26:44.827Z,20.20
2023-11-30T03:27:44.859Z,19.10
2023-11-30T03:28:44.794Z,20.30
2023-11-30T03:29:44.773Z,21.10
2023-11-30T03:30:44.774Z,18.90
2023-11-30T03:31:44.817Z,19.00
2023-11-30T03:32:44.822Z,19.50
2023-11-30T03:33:44.837Z,18.10
2023-11-30T03:34:44.757Z,18.50
2023-11-30T03:35:44.713Z,19.60
2023-11-30T03:36:44.768Z,19.90
2023-11-30T03:37:44.702Z,20.00
2023-11-30T03:38:44.690Z,18.40
2023-11-30T03:39:44.684Z,18.00
2023-11-30T03:40:44.695Z,16.60
2023-11-30T03:41:44.645Z,19.90
2023-11-30T03:42:44.634Z,16.40
2023-11-30T03:43:44.650Z,16.50
2023-11-30T03:44:44.638Z,18.60
2023-11-30T03:45:44.631Z,18.70
2023-11-30T03:46:44.677Z,17.60
2023-11-30T03:47:44.613Z,19.80
2023-11-30T03:48:44.633Z,18.30
2023-11-30T03:49:44.577Z,19.60
2023-11-30T03:50:44.561Z,19.90
2023-11-30T03:51:44.547Z,19.90
2023-11-30T03:52:44.613Z,19.00
2023-11-30T03:53:44.519Z,17.50
2023-11-30T03:54:44.527Z,16.60
2023-11-30T03:55:44.493Z,17.80
2023-11-30T03:56:44.491Z,21.10
2023-11-30T03:57:44.508Z,21.20
2023-11-30T03:58:44.500Z,21.20
2023-11-30T03:59:44.463Z,19.80
2023-11-30T04:00:44.442Z,20.00
2023-11-30T04:01:44.493Z,19.30
2023-11-30T04:02:44.558Z,24.50
2023-11-30T04:03:44.505Z,20.10
2023-11-30T04:04:44.596Z,21.10
2023-11-30T04:05:44.417Z,21.00
2023-11-30T04:06:44.394Z,23.60
2023-11-30T04:07:44.494Z,27.60
2023-11-30T04:08:44.396Z,25.60
2023-11-30T04:09:44.418Z,25.20
2023-11-30T04:10:44.366Z,24.60
2023-11-30T04:11:44.333Z,25.90
2023-11-30T04:12:44.319Z,24.30
2023-11-30T04:13:44.337Z,22.80
2023-11-30T04:14:44.304Z,22.70
2023-11-30T04:15:44.319Z,24.90
2023-11-30T04:16:44.349Z,23.10
2023-11-30T04:17:44.339Z,22.90
2023-11-30T04:18:44.298Z,22.70
2023-11-30T04:19:44.277Z,20.70
2023-11-30T04:20:44.275Z,23.00
2023-11-30T04:21:44.226Z,22.50
2023-11-30T04:22:44.218Z,21.50
2023-11-30T04:23:44.201Z,21.30
2023-11-30T04:24:44.222Z,25.90
2023-11-30T04:25:44.179Z,25.80
2023-11-30T04:26:44.203Z,22.30
2023-11-30T04:27:44.193Z,25.20
2023-11-30T04:28:44.193Z,25.70
2023-11-30T04:29:44.145Z,24.90
2023-11-30T04:30:44.189Z,24.40
2023-11-30T04:31:44.156Z,24.90
2023-11-30T04:32:44.138Z,23.30
2023-11-30T04:33:44.140Z,24.30
2023-11-30T04:34:44.093Z,21.90
2023-11-30T04:35:44.091Z,19.80
2023-11-30T04:36:44.072Z,22.80
2023-11-30T04:37:44.097Z,20.80
2023-11-30T04:38:44.040Z,21.40
2023-11-30T04:39:44.076Z,25.30
2023-11-30T04:40:44.024Z,21.90
2023-11-30T04:41:44.018Z,21.10
2023-11-30T04:42:44.015Z,25.70
2023-11-30T04:43:44.024Z,22.90
2023-11-30T04:44:44.028Z,22.40
2023-11-30T04:45:43.980Z,23.30
2023-11-30T04:46:43.998Z,21.60
2023-11-30T04:47:44.027Z,20.70
2023-11-30T04:48:43.999Z,21.30
2023-11-30T04:49:43.932Z,19.30
2023-11-30T04:50:43.950Z,22.60
2023-11-30T04:51:43.947Z,19.80
2023-11-30T04:52:43.908Z,23.20
2023-11-30T04:53:43.925Z,20.50
2023-11-30T04:54:43.907Z,21.40
2023-11-30T04:55:43.889Z,21.20
2023-11-30T04:56:43.892Z,19.80
2023-11-30T04:57:43.863Z,20.00
2023-11-30T04:58:43.861Z,22.00
2023-11-30T04:59:43.843Z,19.10
2023-11-30T05:00:43.819Z,22.20
2023-11-30T05:01:43.898Z,19.50
2023-11-30T05:02:43.893Z,17.70
2023-11-30T05:03:44.016Z,23.70
2023-11-30T05:04:43.913Z,21.50
2023-11-30T05:05:43.766Z,20.10
2023-11-30T05:06:43.757Z,19.60
2023-11-30T05:07:43.792Z,20.50
2023-11-30T05:08:43.730Z,19.80
2023-11-30T05:09:43.740Z,21.10
2023-11-30T05:10:43.725Z,20.50
2023-11-30T05:11:43.701Z,19.10
2023-11-30T05:12:43.690Z,21.70
2023-11-30T05:13:43.678Z,20.10
2023-11-30T05:14:43.716Z,18.20
2023-11-30T05:15:45.718Z,18.50
2023-11-30T05:16:43.694Z,17.80
2023-11-30T05:17:43.683Z,21.60
2023-11-30T05:18:43.650Z,20.00
2023-11-30T05:19:43.635Z,19.90
2023-11-30T05:20:43.610Z,19.10
2023-11-30T05:21:43.592Z,20.80
2023-11-30T05:22:43.593Z,19.60
2023-11-30T05:23:43.601Z,17.30
2023-11-30T05:24:43.566Z,19.60
2023-11-30T05:25:43.577Z,20.10
2023-11-30T05:26:43.551Z,16.10
2023-11-30T05:27:43.556Z,19.20
2023-11-30T05:28:43.517Z,20.00
2023-11-30T05:29:43.543Z,19.90
2023-11-30T05:30:43.573Z,18.30
2023-11-30T05:31:43.503Z,18.40
2023-11-30T05:32:43.481Z,16.00
2023-11-30T05:33:43.567Z,17.60
2023-11-30T05:34:43.494Z,19.50
2023-11-30T05:35:43.439Z,19.20
2023-11-30T05:36:43.441Z,20.10
2023-11-30T05:37:43.417Z,19.90
2023-11-30T05:38:43.411Z,20.20
2023-11-30T05:39:43.404Z,21.00
2023-11-30T05:40:43.452Z,19.90
2023-11-30T05:41:43.380Z,22.60
2023-11-30T05:42:43.378Z,20.60
2023-11-30T05:43:43.993Z,22.00
2023-11-30T05:44:43.349Z,19.60
2023-11-30T05:45:43.335Z,18.60
2023-11-30T05:46:43.349Z,20.50
2023-11-30T05:47:43.343Z,19.80
2023-11-30T05:48:43.386Z,21.00
2023-11-30T05:49:43.326Z,20.70
2023-11-30T05:50:43.308Z,22.80
2023-11-30T05:51:43.308Z,21.00
2023-11-30T05:52:43.266Z,21.60
2023-11-30T05:53:43.298Z,20.10
2023-11-30T05:54:43.296Z,20.60
2023-11-30T05:55:43.248Z,21.10
2023-11-30T05:56:43.256Z,22.90
2023-11-30T05:57:43.258Z,24.60
2023-11-30T05:58:43.188Z,24.20
2023-11-30T05:59:43.236Z,20.30
2023-11-30T06:00:43.201Z,21.90
2023-11-30T06:01:43.203Z,21.40
2023-11-30T06:02:43.167Z,25.70
2023-11-30T06:03:43.242Z,23.70
2023-11-30T06:04:43.234Z,25.10
2023-11-30T06:05:43.125Z,21.60
2023-11-30T06:06:43.121Z,21.90
2023-11-30T06:07:43.091Z,23.30
2023-11-30T06:08:43.114Z,24.80
2023-11-30T06:09:43.126Z,26.60
2023-11-30T06:10:43.075Z,26.10
2023-11-30T06:11:43.072Z,25.50
2023-11-30T06:12:43.077Z,26.60
2023-11-30T06:13:43.035Z,26.00
2023-11-30T06:14:43.052Z,27.40
2023-11-30T06:15:43.054Z,26.30
2023-11-30T06:16:43.007Z,23.70
2023-11-30T06:17:43.019Z,25.00
2023-11-30T06:18:43.007Z,23.10
2023-11-30T06:19:43.034Z,24.90
2023-11-30T06:20:42.999Z,24.40
2023-11-30T06:21:42.947Z,24.80
2023-11-30T06:22:42.935Z,22.90
2023-11-30T06:23:42.934Z,23.10
2023-11-30T06:24:42.936Z,22.70
2023-11-30T06:25:42.920Z,26.20
2023-11-30T06:26:42.918Z,28.00
2023-11-30T06:27:42.897Z,27.80
2023-11-30T06:28:42.875Z,31.40
2023-11-30T06:29:42.872Z,35.60
2023-11-30T06:30:42.914Z,35.60
2023-11-30T06:31:42.861Z,37.10
2023-11-30T06:32:42.868Z,40.70
2023-11-30T06:33:42.847Z,37.50
2023-11-30T06:34:42.832Z,41.70
2023-11-30T06:35:42.831Z,34.70
2023-11-30T06:36:42.799Z,38.10
2023-11-30T06:37:42.836Z,41.20
2023-11-30T06:38:42.805Z,34.20
2023-11-30T06:39:42.780Z,40.40
2023-11-30T06:40:42.785Z,34.00
2023-11-30T06:41:42.761Z,37.40
2023-11-30T06:42:42.742Z,33.10
2023-11-30T06:43:42.752Z,34.30
2023-11-30T06:44:42.756Z,32.90
2023-11-30T06:45:42.773Z,36.70
2023-11-30T06:46:42.705Z,36.10
2023-11-30T06:47:42.763Z,39.50
2023-11-30T06:48:42.771Z,36.40
2023-11-30T06:49:42.652Z,39.20
2023-11-30T06:50:42.760Z,41.90
2023-11-30T06:51:42.678Z,35.80
2023-11-30T06:52:42.637Z,41.10
2023-11-30T06:53:42.617Z,40.30
2023-11-30T06:54:42.612Z,38.70
2023-11-30T06:55:42.593Z,37.20
2023-11-30T06:56:42.583Z,38.90
2023-11-30T06:57:42.633Z,35.50
2023-11-30T06:58:42.512Z,32.90
2023-11-30T06:59:42.510Z,39.50
2023-11-30T07:00:42.516Z,34.00
2023-11-30T07:01:42.552Z,34.70
2023-11-30T07:02:42.487Z,33.40
2023-11-30T07:03:43.656Z,35.60
2023-11-30T07:04:42.731Z,35.10
2023-11-30T07:05:42.454Z,34.70
2023-11-30T07:06:42.484Z,31.80
2023-11-30T07:07:42.443Z,33.80
2023-11-30T07:08:42.405Z,33.30
2023-11-30T07:09:42.413Z,32.60
2023-11-30T07:10:42.398Z,35.50
2023-11-30T07:11:42.376Z,31.70
2023-11-30T07:12:42.418Z,29.40
2023-11-30T07:13:42.434Z,28.00
2023-11-30T07:14:50.743Z,30.60
2023-11-30T07:15:42.422Z,28.90
2023-11-30T07:16:42.443Z,27.40
2023-11-30T07:17:42.342Z,25.60
2023-11-30T07:18:42.319Z,23.90
2023-11-30T07:19:42.291Z,24.00
2023-11-30T07:20:42.303Z,25.90
2023-11-30T07:21:42.352Z,24.50
2023-11-30T07:22:42.241Z,22.60
2023-11-30T07:23:42.254Z,24.20
2023-11-30T07:24:42.271Z,27.60
2023-11-30T07:25:42.240Z,27.30
2023-11-30T07:26:42.203Z,25.60
2023-11-30T07:27:42.237Z,27.60
2023-11-30T07:28:42.240Z,29.60
2023-11-30T07:29:42.169Z,33.20
2023-11-30T07:30:42.232Z,31.10
2023-11-30T07:31:42.205Z,32.90
2023-11-30T07:32:42.179Z,33.20
2023-11-30T07:33:42.198Z,30.30
2023-11-30T07:34:42.142Z,29.90
2023-11-30T07:35:42.119Z,28.80
2023-11-30T07:36:42.200Z,29.80
2023-11-30T07:37:42.108Z,28.40
2023-11-30T07:38:42.092Z,31.10
2023-11-30T07:39:42.079Z,30.80
2023-11-30T07:40:42.065Z,31.40
2023-11-30T07:41:42.098Z,29.50
2023-11-30T07:42:42.046Z,29.50
2023-11-30T07:43:42.050Z,30.80
2023-11-30T07:44:42.040Z,30.50
2023-11-30T07:45:42.088Z,30.40
2023-11-30T07:46:42.019Z,29.60
2023-11-30T07:47:41.984Z,28.20
2023-11-30T07:48:42.082Z,28.90
2023-11-30T07:49:41.966Z,27.40
2023-11-30T07:50:41.960Z,25.50
2023-11-30T07:51:41.943Z,25.30
2023-11-30T07:52:41.960Z,23.30
2023-11-30T07:53:41.930Z,22.10
2023-11-30T07:54:41.904Z,24.60
2023-11-30T07:55:41.915Z,20.40
2023-11-30T07:56:41.900Z,21.30
2023-11-30T07:57:41.933Z,21.10
2023-11-30T07:58:41.910Z,22.80
2023-11-30T07:59:41.896Z,24.50
2023-11-30T08:00:41.904Z,25.10
2023-11-30T08:01:41.851Z,24.80
2023-11-30T08:02:41.847Z,24.50
2023-11-30T08:03:41.922Z,24.60
2023-11-30T08:04:42.028Z,23.70
2023-11-30T08:05:41.788Z,25.50
2023-11-30T08:06:41.812Z,23.50
2023-11-30T08:07:41.781Z,27.00
2023-11-30T08:08:41.800Z,29.30
2023-11-30T08:09:41.816Z,28.70
2023-11-30T08:10:41.742Z,29.40
2023-11-30T08:11:41.829Z,32.50
2023-11-30T08:12:41.750Z,33.00
2023-11-30T08:13:41.726Z,34.90
2023-11-30T08:14:41.704Z,35.10
2023-11-30T08:15:41.766Z,31.20
2023-11-30T08:16:42.127Z,33.90
2023-11-30T08:17:41.706Z,32.10
2023-11-30T08:18:41.732Z,31.50
2023-11-30T08:19:41.669Z,34.70
2023-11-30T08:20:41.674Z,33.20
2023-11-30T08:21:41.766Z,32.70
2023-11-30T08:22:41.659Z,34.30
2023-11-30T08:23:41.604Z,32.70
2023-11-30T08:24:41.646Z,31.60
2023-11-30T08:25:41.605Z,32.00
2023-11-30T08:26:41.584Z,32.60
2023-11-30T08:27:42.521Z,31.40
2023-11-30T08:28:41.566Z,31.70
2023-11-30T08:29:41.560Z,29.10
2023-11-30T08:30:41.681Z,30.20
2023-11-30T08:31:41.570Z,29.60
2023-11-30T08:32:41.577Z,31.50
2023-11-30T08:33:41.566Z,29.70
2023-11-30T08:34:41.498Z,29.40
2023-11-30T08:35:41.505Z,28.10
2023-11-30T08:36:41.552Z,28.30
2023-11-30T08:37:41.474Z,28.60
2023-11-30T08:38:41.455Z,29.80
2023-11-30T08:39:44.260Z,33.30
2023-11-30T08:40:41.463Z,32.80
2023-11-30T08:41:41.413Z,36.20
2023-11-30T08:42:41.532Z,33.60
2023-11-30T08:43:41.416Z,30.30
2023-11-30T18:14:49.565Z,38.40
2023-11-30T18:15:50.702Z,43.00
2023-11-30T18:16:50.543Z,40.20
2023-11-30T18:17:50.610Z,37.20
2023-11-30T18:18:50.558Z,40.90
2023-11-30T18:19:50.498Z,40.50
2023-11-30T18:20:50.475Z,40.60
2023-11-30T18:21:50.476Z,44.10
2023-11-30T18:22:50.533Z,41.30
2023-11-30T18:23:50.464Z,40.90
2023-11-30T18:24:50.503Z,41.70
2023-11-30T18:25:50.404Z,40.80
2023-11-30T18:26:50.394Z,43.20
2023-11-30T18:27:50.462Z,42.90
2023-11-30T18:28:50.421Z,40.60
2023-11-30T18:29:50.398Z,39.00
2023-11-30T18:30:50.581Z,42.80
2023-11-30T18:31:50.425Z,43.30
2023-11-30T18:32:50.422Z,46.00
2023-11-30T18:35:50.333Z,43.60
2023-11-30T18:36:51.331Z,42.50
2023-11-30T18:37:51.272Z,45.20
2023-11-30T18:38:52.259Z,46.60
2023-11-30T18:39:51.336Z,47.40
2023-11-30T18:40:51.356Z,47.60
2023-11-30T18:41:51.238Z,44.20
2023-11-30T18:42:51.255Z,48.00
2023-11-30T18:43:51.353Z,45.80
2023-11-30T18:44:51.222Z,48.20
2023-11-30T18:45:51.263Z,49.80
2023-11-30T18:46:51.321Z,47.90
2023-11-30T18:47:51.207Z,49.10
2023-11-30T18:48:51.206Z,49.90
2023-11-30T18:49:51.151Z,48.50
2023-11-30T18:50:51.203Z,49.20
2023-11-30T18:51:51.166Z,50.20
2023-11-30T18:52:51.138Z,48.40
2023-11-30T18:53:51.136Z,50.00
2023-11-30T18:54:51.184Z,51.00
2023-11-30T18:55:51.085Z,52.90
2023-11-30T18:56:51.129Z,53.00
2023-11-30T18:57:51.132Z,47.30
2023-11-30T18:58:51.075Z,49.30
2023-11-30T18:59:51.051Z,52.30
2023-11-30T19:00:51.108Z,46.70
2023-11-30T19:01:51.140Z,50.60
2023-11-30T19:02:51.114Z,48.40
2023-11-30T19:03:51.001Z,48.00
2023-11-30T19:04:51.017Z,50.70
2023-11-30T19:05:50.993Z,50.60
2023-11-30T19:06:51.028Z,48.80
2023-11-30T19:07:51.001Z,53.90
2023-11-30T19:08:50.971Z,53.30
2023-11-30T19:09:50.986Z,50.20
2023-11-30T19:10:50.932Z,58.30
2023-11-30T19:11:50.978Z,55.70
2023-11-30T19:12:50.973Z,50.80
2023-11-30T19:13:50.906Z,49.10
2023-11-30T19:14:50.922Z,50.90
2023-11-30T19:15:50.969Z,52.30
2023-11-30T19:16:50.899Z,51.60
2023-11-30T19:17:50.900Z,50.80
2023-11-30T19:18:50.973Z,52.70
2023-11-30T19:19:50.860Z,52.10
2023-11-30T19:20:50.843Z,49.80
2023-11-30T19:21:50.888Z,51.80
2023-11-30T19:22:50.838Z,48.60
2023-11-30T19:23:50.800Z,54.30
2023-11-30T19:24:50.833Z,52.10
2023-11-30T19:25:50.767Z,49.60
2023-11-30T19:26:50.800Z,50.80
2023-11-30T19:27:50.807Z,50.60
2023-11-30T19:28:50.732Z,52.20
2023-11-30T19:29:50.778Z,51.90
2023-11-30T19:30:50.831Z,54.00
2023-11-30T19:31:50.721Z,49.00
2023-11-30T19:32:50.752Z,53.60
2023-11-30T19:33:50.793Z,51.60
2023-11-30T19:34:50.705Z,49.60
2023-11-30T19:35:50.687Z,49.60
2023-11-30T19:36:50.766Z,49.60
2023-11-30T19:37:50.644Z,48.60
2023-11-30T19:38:50.676Z,50.80
2023-11-30T19:39:50.740Z,54.50
2023-11-30T19:40:50.601Z,51.10
2023-11-30T19:41:50.620Z,53.00
2023-11-30T19:42:50.740Z,53.20
2023-11-30T19:43:50.606Z,53.20
2023-11-30T19:44:50.570Z,51.50
2023-11-30T19:45:50.586Z,49.30
2023-11-30T19:46:50.583Z,56.00
2023-11-30T19:47:50.628Z,50.60
2023-11-30T19:48:50.524Z,55.20
2023-11-30T19:49:50.587Z,50.70
2023-11-30T19:50:50.568Z,53.50
2023-11-30T19:51:50.481Z,56.50
2023-11-30T19:52:50.549Z,51.10
2023-11-30T19:53:50.478Z,50.80
2023-11-30T19:54:50.477Z,55.60
2023-11-30T19:55:50.490Z,55.10
2023-11-30T19:56:50.465Z,58.50
2023-11-30T19:57:50.499Z,58.00
2023-11-30T19:58:50.432Z,56.10
2023-11-30T19:59:50.419Z,57.60
2023-11-30T20:00:50.448Z,57.70
2023-11-30T20:01:50.504Z,54.80
2023-11-30T20:02:50.479Z,53.00
2023-11-30T20:03:50.491Z,56.50
2023-11-30T20:04:50.355Z,58.10
2023-11-30T20:05:50.338Z,57.10
2023-11-30T20:06:50.419Z,51.70
2023-11-30T20:07:50.322Z,54.70
2023-11-30T20:08:50.334Z,53.90
2023-11-30T20:09:50.325Z,56.50
2023-11-30T20:10:52.619Z,55.20
2023-11-30T20:11:50.297Z,56.30
2023-11-30T20:12:50.294Z,52.60
2023-11-30T20:13:50.244Z,54.10
2023-11-30T20:14:50.279Z,53.40
2023-11-30T20:15:50.315Z,51.50
2023-11-30T20:16:50.237Z,56.50
2023-11-30T20:17:50.315Z,59.20
2023-11-30T20:18:50.276Z,55.00
2023-11-30T20:19:50.186Z,59.60
2023-11-30T20:20:50.186Z,54.70
2023-11-30T20:21:50.293Z,53.50
2023-11-30T20:22:50.177Z,54.50
2023-11-30T20:23:50.177Z,53.70
2023-11-30T20:24:50.204Z,55.10
2023-11-30T20:25:50.142Z,56.00
2023-11-30T20:26:50.122Z,56.60
2023-11-30T20:27:50.126Z,57.30
2023-11-30T20:28:50.148Z,59.20
2023-11-30T20:29:50.084Z,56.10
2023-11-30T20:30:50.164Z,56.60
2023-11-30T20:31:50.066Z,60.60
2023-11-30T20:32:50.147Z,58.30
2023-11-30T20:33:50.058Z,55.90
2023-11-30T20:34:50.040Z,58.60
2023-11-30T20:35:50.302Z,61.60
2023-11-30T20:36:50.093Z,57.60
2023-11-30T20:37:50.062Z,58.90
2023-11-30T20:38:50.116Z,57.60
2023-11-30T20:39:50.036Z,59.00
2023-11-30T20:40:49.981Z,58.40
2023-11-30T20:41:49.989Z,55.80
2023-11-30T20:42:50.019Z,62.20
2023-11-30T20:43:49.931Z,60.90
2023-11-30T20:44:49.962Z,57.80
2023-11-30T20:45:49.992Z,54.40
2023-11-30T20:46:51.000Z,56.50
2023-11-30T20:47:49.898Z,59.40
2023-11-30T20:48:49.967Z,58.50
2023-11-30T20:49:49.896Z,55.30
2023-11-30T20:50:49.884Z,58.60
2023-11-30T20:51:49.908Z,56.30
2023-11-30T20:52:49.857Z,58.90
2023-11-30T20:53:49.889Z,56.70
2023-11-30T20:54:50.036Z,58.80
2023-11-30T20:55:49.809Z,60.20
2023-11-30T20:56:49.792Z,59.80
2023-11-30T20:57:49.914Z,59.70
2023-11-30T20:58:49.867Z,59.40
2023-11-30T20:59:49.800Z,53.90
2023-11-30T21:00:49.862Z,58.80
2023-11-30T21:01:50.045Z,59.40
2023-11-30T21:02:49.933Z,56.90
2023-11-30T21:03:49.848Z,57.60
2023-11-30T21:04:49.763Z,56.40
2023-11-30T21:05:50.177Z,57.40
2023-11-30T21:06:49.837Z,56.70
2023-11-30T21:07:49.700Z,57.60
2023-11-30T21:08:49.725Z,57.60
2023-11-30T21:09:49.735Z,56.10
2023-11-30T21:10:49.751Z,56.80
2023-11-30T21:11:49.640Z,57.80
2023-11-30T21:12:49.678Z,53.60
2023-11-30T21:13:49.627Z,58.00
2023-11-30T21:14:49.615Z,53.50
2023-11-30T21:15:49.719Z,54.80
2023-11-30T21:16:49.645Z,55.80
2023-11-30T21:17:49.611Z,55.10
2023-11-30T21:18:49.614Z,55.00
2023-11-30T21:19:49.551Z,54.30
2023-11-30T21:20:49.616Z,53.80
2023-11-30T21:21:49.699Z,53.20
2023-11-30T21:22:49.543Z,56.60
2023-11-30T21:23:49.512Z,52.20
2023-11-30T21:24:49.510Z,53.90
2023-11-30T21:25:49.535Z,55.10
2023-11-30T21:26:49.465Z,56.50
2023-11-30T21:27:49.573Z,52.80
2023-11-30T21:28:49.470Z,55.10
2023-11-30T21:29:49.453Z,54.20
2023-11-30T21:30:49.486Z,52.90
2023-11-30T21:31:49.496Z,52.80
2023-11-30T21:32:49.489Z,50.90
2023-11-30T21:33:49.449Z,53.00
2023-11-30T21:34:49.415Z,54.90
2023-11-30T21:35:49.377Z,50.80
2023-11-30T21:36:49.419Z,57.40
2023-11-30T21:37:49.418Z,55.60
2023-11-30T21:38:49.340Z,54.40
2023-11-30T21:39:49.400Z,55.00
2023-11-30T21:40:49.353Z,52.90
2023-11-30T21:41:49.330Z,47.20
2023-11-30T21:42:49.345Z,56.60
2023-11-30T21:43:49.287Z,53.40
2023-11-30T21:44:49.323Z,50.60
2023-11-30T21:45:49.310Z,52.90
2023-11-30T21:46:49.345Z,52.90
2023-11-30T21:47:49.336Z,53.80
2023-11-30T21:48:49.447Z,52.80
2023-11-30T21:49:49.250Z,54.80
2023-11-30T21:50:49.224Z,61.10
2023-11-30T21:51:49.331Z,59.90
2023-11-30T21:52:49.243Z,60.00
2023-11-30T21:53:49.184Z,61.60
2023-11-30T21:54:49.219Z,60.50
2023-11-30T21:55:49.172Z,62.30
2023-11-30T21:56:49.185Z,62.00
2023-11-30T21:57:49.229Z,64.30
2023-11-30T21:58:49.149Z,64.60
2023-11-30T21:59:49.230Z,66.30
2023-11-30T22:00:49.369Z,68.10
2023-11-30T22:01:49.429Z,65.20
2023-11-30T22:02:49.220Z,59.70
2023-11-30T22:03:49.359Z,63.40
2023-11-30T22:04:49.344Z,62.70
2023-11-30T22:05:49.088Z,66.60
2023-11-30T22:06:49.109Z,63.90
2023-11-30T22:07:49.063Z,63.00
2023-11-30T22:08:49.084Z,62.00
2023-11-30T22:09:49.025Z,63.40
2023-11-30T22:10:49.034Z,65.00
2023-11-30T22:11:49.028Z,57.70
2023-11-30T22:12:49.061Z,58.80
2023-11-30T22:13:49.084Z,58.60
2023-11-30T22:14:48.983Z,58.80
2023-11-30T22:15:50.819Z,59.90
2023-11-30T22:16:49.059Z,57.50
2023-11-30T22:17:48.976Z,60.80
2023-11-30T22:18:49.018Z,58.20
2023-11-30T22:19:48.917Z,56.60
2023-11-30T22:20:48.934Z,58.50
2023-11-30T22:21:48.923Z,54.00
2023-11-30T22:22:48.891Z,56.60
2023-11-30T22:23:48.947Z,57.70
2023-11-30T22:24:48.961Z,56.00